sensor_id;sensor_type;location;lat;lon;timestamp;P1;durP1;ratioP1;P2;durP2;ratioP2
77430;SDS011;66498;48.564;19.272;2023-02-21T00:02:09;3.10;;;2.20;;
77430;SDS011;66498;48.564;19.272;2023-02-21T00:04:54;5.72;;;2.40;;
77430;SDS011;66498;48.564;19.272;2023-02-21T00:07:38;3.60;;;2.35;;
77430;SDS011;66498;48.564;19.272;2023-02-21T00:10:22;2.25;;;1.75;;
77430;SDS011;66498;48.564;19.272;2023-02-21T00:13:05;2.85;;;2.03;;
77430;SDS011;66498;48.564;19.272;2023-02-21T00:15:49;5.00;;;3.10;;
77430;SDS011;66498;48.564;19.272;2023-02-21T00:18:34;3.83;;;2.63;;
77430;SDS011;66498;48.564;19.272;2023-02-21T00:21:18;4.95;;;2.50;;
77430;SDS011;66498;48.564;19.272;2023-02-21T00:24:02;3.65;;;2.13;;
77430;SDS011;66498;48.564;19.272;2023-02-21T00:26:47;3.92;;;2.17;;
77430;SDS011;66498;48.564;19.272;2023-02-21T00:29:31;4.95;;;2.75;;
77430;SDS011;66498;48.564;19.272;2023-02-21T00:32:14;3.90;;;2.20;;
77430;SDS011;66498;48.564;19.272;2023-02-21T00:34:58;7.43;;;2.75;;
77430;SDS011;66498;48.564;19.272;2023-02-21T00:37:42;4.35;;;2.65;;
77430;SDS011;66498;48.564;19.272;2023-02-21T00:40:26;4.18;;;2.55;;
77430;SDS011;66498;48.564;19.272;2023-02-21T00:43:10;3.08;;;2.17;;
77430;SDS011;66498;48.564;19.272;2023-02-21T00:45:54;5.50;;;2.50;;
77430;SDS011;66498;48.564;19.272;2023-02-21T00:48:38;3.63;;;2.15;;
77430;SDS011;66498;48.564;19.272;2023-02-21T00:51:22;3.38;;;2.25;;
77430;SDS011;66498;48.564;19.272;2023-02-21T00:54:06;4.68;;;2.47;;
77430;SDS011;66498;48.564;19.272;2023-02-21T00:56:50;6.05;;;2.78;;
77430;SDS011;66498;48.564;19.272;2023-02-21T00:59:34;8.70;;;5.20;;
77430;SDS011;66498;48.564;19.272;2023-02-21T01:02:18;7.85;;;4.43;;
77430;SDS011;66498;48.564;19.272;2023-02-21T01:05:02;4.45;;;2.80;;
77430;SDS011;66498;48.564;19.272;2023-02-21T01:07:46;3.03;;;2.53;;
77430;SDS011;66498;48.564;19.272;2023-02-21T01:10:30;5.72;;;3.15;;
77430;SDS011;66498;48.564;19.272;2023-02-21T01:13:14;3.05;;;2.17;;
77430;SDS011;66498;48.564;19.272;2023-02-21T01:15:57;5.97;;;2.80;;
77430;SDS011;66498;48.564;19.272;2023-02-21T01:18:41;2.17;;;1.77;;
77430;SDS011;66498;48.564;19.272;2023-02-21T01:21:25;4.00;;;2.20;;
77430;SDS011;66498;48.564;19.272;2023-02-21T01:24:11;5.07;;;2.28;;
77430;SDS011;66498;48.564;19.272;2023-02-21T01:26:57;4.20;;;2.60;;
77430;SDS011;66498;48.564;19.272;2023-02-21T01:29:42;4.03;;;2.22;;
77430;SDS011;66498;48.564;19.272;2023-02-21T01:32:26;3.22;;;2.10;;
77430;SDS011;66498;48.564;19.272;2023-02-21T01:35:09;5.10;;;2.63;;
77430;SDS011;66498;48.564;19.272;2023-02-21T01:37:53;4.70;;;2.40;;
77430;SDS011;66498;48.564;19.272;2023-02-21T01:40:38;5.18;;;2.40;;
77430;SDS011;66498;48.564;19.272;2023-02-21T01:43:23;6.75;;;2.50;;
77430;SDS011;66498;48.564;19.272;2023-02-21T01:46:13;4.93;;;2.47;;
77430;SDS011;66498;48.564;19.272;2023-02-21T01:49:01;6.82;;;2.78;;
77430;SDS011;66498;48.564;19.272;2023-02-21T01:51:49;4.35;;;2.60;;
77430;SDS011;66498;48.564;19.272;2023-02-21T01:54:37;4.95;;;2.65;;
77430;SDS011;66498;48.564;19.272;2023-02-21T01:57:24;3.97;;;2.65;;
77430;SDS011;66498;48.564;19.272;2023-02-21T02:00:09;3.08;;;2.08;;
77430;SDS011;66498;48.564;19.272;2023-02-21T02:02:56;3.45;;;2.45;;
77430;SDS011;66498;48.564;19.272;2023-02-21T02:05:43;3.15;;;2.50;;
77430;SDS011;66498;48.564;19.272;2023-02-21T02:08:31;7.70;;;3.40;;
77430;SDS011;66498;48.564;19.272;2023-02-21T02:11:21;5.18;;;2.53;;
77430;SDS011;66498;48.564;19.272;2023-02-21T02:19:49;6.15;;;2.90;;
77430;SDS011;66498;48.564;19.272;2023-02-21T02:25:21;4.70;;;3.13;;
77430;SDS011;66498;48.564;19.272;2023-02-21T02:34:07;4.07;;;2.40;;
77430;SDS011;66498;48.564;19.272;2023-02-21T02:44:53;3.95;;;2.42;;
77430;SDS011;66498;48.564;19.272;2023-02-21T02:47:34;3.72;;;2.50;;
77430;SDS011;66498;48.564;19.272;2023-02-21T02:50:03;4.57;;;2.45;;
77430;SDS011;66498;48.564;19.272;2023-02-21T02:52:30;4.47;;;2.50;;
77430;SDS011;66498;48.564;19.272;2023-02-21T02:55:00;4.88;;;3.03;;
77430;SDS011;66498;48.564;19.272;2023-02-21T02:57:28;5.80;;;2.83;;
77430;SDS011;66498;48.564;19.272;2023-02-21T03:00:04;4.07;;;2.30;;
77430;SDS011;66498;48.564;19.272;2023-02-21T03:08:15;3.20;;;2.17;;
77430;SDS011;66498;48.564;19.272;2023-02-21T03:10:47;3.65;;;1.95;;
77430;SDS011;66498;48.564;19.272;2023-02-21T03:21:20;3.03;;;1.75;;
77430;SDS011;66498;48.564;19.272;2023-02-21T03:23:50;7.47;;;3.10;;
77430;SDS011;66498;48.564;19.272;2023-02-21T03:26:18;5.07;;;2.70;;
77430;SDS011;66498;48.564;19.272;2023-02-21T03:28:44;3.95;;;2.50;;
77430;SDS011;66498;48.564;19.272;2023-02-21T03:31:12;2.92;;;2.28;;
77430;SDS011;66498;48.564;19.272;2023-02-21T03:36:31;5.05;;;3.20;;
77430;SDS011;66498;48.564;19.272;2023-02-21T03:38:57;7.88;;;2.97;;
77430;SDS011;66498;48.564;19.272;2023-02-21T03:41:22;3.63;;;2.00;;
77430;SDS011;66498;48.564;19.272;2023-02-21T03:43:48;3.90;;;2.53;;
77430;SDS011;66498;48.564;19.272;2023-02-21T03:46:14;2.97;;;2.47;;
77430;SDS011;66498;48.564;19.272;2023-02-21T03:48:40;4.20;;;2.47;;
77430;SDS011;66498;48.564;19.272;2023-02-21T03:51:05;5.50;;;3.00;;
77430;SDS011;66498;48.564;19.272;2023-02-21T03:53:31;5.60;;;2.90;;
77430;SDS011;66498;48.564;19.272;2023-02-21T03:55:57;9.75;;;3.10;;
77430;SDS011;66498;48.564;19.272;2023-02-21T03:58:23;4.20;;;2.22;;
77430;SDS011;66498;48.564;19.272;2023-02-21T04:00:48;4.85;;;2.83;;
77430;SDS011;66498;48.564;19.272;2023-02-21T04:03:15;5.47;;;3.35;;
77430;SDS011;66498;48.564;19.272;2023-02-21T04:05:40;8.18;;;3.97;;
77430;SDS011;66498;48.564;19.272;2023-02-21T04:08:06;3.28;;;2.58;;
77430;SDS011;66498;48.564;19.272;2023-02-21T04:10:32;7.00;;;3.80;;
77430;SDS011;66498;48.564;19.272;2023-02-21T04:12:58;7.80;;;4.60;;
77430;SDS011;66498;48.564;19.272;2023-02-21T04:15:23;6.40;;;2.85;;
77430;SDS011;66498;48.564;19.272;2023-02-21T04:17:49;5.90;;;3.53;;
77430;SDS011;66498;48.564;19.272;2023-02-21T04:20:14;5.25;;;3.25;;
77430;SDS011;66498;48.564;19.272;2023-02-21T04:22:40;6.68;;;3.80;;
77430;SDS011;66498;48.564;19.272;2023-02-21T04:25:06;7.47;;;2.85;;
77430;SDS011;66498;48.564;19.272;2023-02-21T04:27:32;6.40;;;3.97;;
77430;SDS011;66498;48.564;19.272;2023-02-21T04:29:59;6.00;;;3.63;;
77430;SDS011;66498;48.564;19.272;2023-02-21T04:32:24;4.63;;;2.50;;
77430;SDS011;66498;48.564;19.272;2023-02-21T04:34:50;2.60;;;1.80;;
77430;SDS011;66498;48.564;19.272;2023-02-21T04:37:15;3.88;;;2.85;;
77430;SDS011;66498;48.564;19.272;2023-02-21T04:39:41;3.85;;;2.13;;
77430;SDS011;66498;48.564;19.272;2023-02-21T04:42:06;4.60;;;3.30;;
77430;SDS011;66498;48.564;19.272;2023-02-21T04:44:33;4.68;;;2.17;;
77430;SDS011;66498;48.564;19.272;2023-02-21T04:46:59;3.63;;;2.38;;
77430;SDS011;66498;48.564;19.272;2023-02-21T04:49:25;4.15;;;3.08;;
77430;SDS011;66498;48.564;19.272;2023-02-21T04:54:40;3.55;;;2.38;;
77430;SDS011;66498;48.564;19.272;2023-02-21T04:57:05;4.30;;;3.08;;
77430;SDS011;66498;48.564;19.272;2023-02-21T04:59:31;4.32;;;2.70;;
77430;SDS011;66498;48.564;19.272;2023-02-21T05:01:56;4.00;;;2.33;;
77430;SDS011;66498;48.564;19.272;2023-02-21T05:04:23;3.35;;;2.10;;
77430;SDS011;66498;48.564;19.272;2023-02-21T05:06:49;2.72;;;1.98;;
77430;SDS011;66498;48.564;19.272;2023-02-21T05:09:14;6.68;;;2.85;;
77430;SDS011;66498;48.564;19.272;2023-02-21T05:11:40;8.32;;;2.92;;
77430;SDS011;66498;48.564;19.272;2023-02-21T05:14:05;3.83;;;2.47;;
77430;SDS011;66498;48.564;19.272;2023-02-21T05:16:31;5.05;;;3.03;;
77430;SDS011;66498;48.564;19.272;2023-02-21T05:18:56;4.45;;;2.85;;
77430;SDS011;66498;48.564;19.272;2023-02-21T05:21:22;4.60;;;2.22;;
77430;SDS011;66498;48.564;19.272;2023-02-21T05:23:47;5.57;;;3.35;;
77430;SDS011;66498;48.564;19.272;2023-02-21T05:26:20;5.30;;;2.85;;
77430;SDS011;66498;48.564;19.272;2023-02-21T05:28:47;4.40;;;2.88;;
77430;SDS011;66498;48.564;19.272;2023-02-21T05:31:13;3.25;;;2.58;;
77430;SDS011;66498;48.564;19.272;2023-02-21T05:33:38;3.78;;;2.63;;
77430;SDS011;66498;48.564;19.272;2023-02-21T05:36:04;5.45;;;3.03;;
77430;SDS011;66498;48.564;19.272;2023-02-21T05:38:30;5.00;;;3.08;;
77430;SDS011;66498;48.564;19.272;2023-02-21T05:40:55;5.15;;;3.05;;
77430;SDS011;66498;48.564;19.272;2023-02-21T05:43:21;5.40;;;3.03;;
77430;SDS011;66498;48.564;19.272;2023-02-21T05:45:47;4.78;;;2.78;;
77430;SDS011;66498;48.564;19.272;2023-02-21T05:48:14;4.80;;;2.30;;
77430;SDS011;66498;48.564;19.272;2023-02-21T05:50:39;5.53;;;3.25;;
77430;SDS011;66498;48.564;19.272;2023-02-21T05:53:05;5.60;;;3.05;;
77430;SDS011;66498;48.564;19.272;2023-02-21T05:55:31;5.30;;;3.35;;
77430;SDS011;66498;48.564;19.272;2023-02-21T05:57:56;3.45;;;2.40;;
77430;SDS011;66498;48.564;19.272;2023-02-21T06:00:26;8.77;;;3.80;;
77430;SDS011;66498;48.564;19.272;2023-02-21T06:02:53;6.90;;;3.33;;
77430;SDS011;66498;48.564;19.272;2023-02-21T06:05:20;5.50;;;3.40;;
77430;SDS011;66498;48.564;19.272;2023-02-21T06:07:46;7.82;;;3.10;;
77430;SDS011;66498;48.564;19.272;2023-02-21T06:10:13;5.25;;;3.20;;
77430;SDS011;66498;48.564;19.272;2023-02-21T06:12:39;5.47;;;3.53;;
77430;SDS011;66498;48.564;19.272;2023-02-21T06:15:05;6.55;;;3.53;;
77430;SDS011;66498;48.564;19.272;2023-02-21T06:17:44;4.85;;;2.92;;
77430;SDS011;66498;48.564;19.272;2023-02-21T06:20:10;4.25;;;2.20;;
77430;SDS011;66498;48.564;19.272;2023-02-21T06:22:38;5.28;;;3.13;;
77430;SDS011;66498;48.564;19.272;2023-02-21T06:25:04;4.95;;;2.97;;
77430;SDS011;66498;48.564;19.272;2023-02-21T06:27:30;3.67;;;2.42;;
77430;SDS011;66498;48.564;19.272;2023-02-21T06:29:55;6.00;;;2.90;;
77430;SDS011;66498;48.564;19.272;2023-02-21T06:32:21;4.85;;;2.65;;
77430;SDS011;66498;48.564;19.272;2023-02-21T06:34:46;4.53;;;3.15;;
77430;SDS011;66498;48.564;19.272;2023-02-21T06:37:12;3.42;;;2.30;;
77430;SDS011;66498;48.564;19.272;2023-02-21T06:39:38;3.70;;;2.13;;
77430;SDS011;66498;48.564;19.272;2023-02-21T06:42:04;5.63;;;2.50;;
77430;SDS011;66498;48.564;19.272;2023-02-21T06:44:30;5.13;;;3.10;;
77430;SDS011;66498;48.564;19.272;2023-02-21T06:46:56;8.00;;;3.50;;
77430;SDS011;66498;48.564;19.272;2023-02-21T06:49:22;9.60;;;3.78;;
77430;SDS011;66498;48.564;19.272;2023-02-21T06:51:47;5.50;;;2.75;;
77430;SDS011;66498;48.564;19.272;2023-02-21T06:54:13;6.53;;;3.10;;
77430;SDS011;66498;48.564;19.272;2023-02-21T06:56:41;5.18;;;2.95;;
77430;SDS011;66498;48.564;19.272;2023-02-21T06:59:06;6.30;;;3.10;;
77430;SDS011;66498;48.564;19.272;2023-02-21T07:01:32;4.85;;;2.72;;
77430;SDS011;66498;48.564;19.272;2023-02-21T07:03:58;6.90;;;3.50;;
77430;SDS011;66498;48.564;19.272;2023-02-21T07:06:24;6.60;;;3.10;;
77430;SDS011;66498;48.564;19.272;2023-02-21T07:08:49;6.55;;;3.60;;
77430;SDS011;66498;48.564;19.272;2023-02-21T07:11:16;7.70;;;4.18;;
77430;SDS011;66498;48.564;19.272;2023-02-21T07:14:01;4.68;;;3.05;;
77430;SDS011;66498;48.564;19.272;2023-02-21T07:16:27;6.32;;;3.03;;
77430;SDS011;66498;48.564;19.272;2023-02-21T07:18:53;5.57;;;3.28;;
77430;SDS011;66498;48.564;19.272;2023-02-21T07:21:19;3.75;;;2.13;;
77430;SDS011;66498;48.564;19.272;2023-02-21T07:23:46;5.78;;;3.10;;
77430;SDS011;66498;48.564;19.272;2023-02-21T07:26:12;4.90;;;2.80;;
77430;SDS011;66498;48.564;19.272;2023-02-21T07:28:39;4.82;;;3.30;;
77430;SDS011;66498;48.564;19.272;2023-02-21T07:31:06;5.50;;;3.30;;
77430;SDS011;66498;48.564;19.272;2023-02-21T07:33:32;7.50;;;3.42;;
77430;SDS011;66498;48.564;19.272;2023-02-21T07:35:58;6.80;;;3.22;;
77430;SDS011;66498;48.564;19.272;2023-02-21T07:38:25;5.30;;;3.28;;
77430;SDS011;66498;48.564;19.272;2023-02-21T07:40:55;4.72;;;3.03;;
77430;SDS011;66498;48.564;19.272;2023-02-21T07:43:26;8.25;;;3.50;;
77430;SDS011;66498;48.564;19.272;2023-02-21T07:45:53;4.93;;;2.95;;
77430;SDS011;66498;48.564;19.272;2023-02-21T07:48:18;4.50;;;2.90;;
77430;SDS011;66498;48.564;19.272;2023-02-21T07:50:44;5.45;;;2.90;;
77430;SDS011;66498;48.564;19.272;2023-02-21T07:53:10;7.68;;;2.85;;
77430;SDS011;66498;48.564;19.272;2023-02-21T07:55:37;5.82;;;3.10;;
77430;SDS011;66498;48.564;19.272;2023-02-21T07:58:02;5.43;;;2.70;;
77430;SDS011;66498;48.564;19.272;2023-02-21T08:00:28;6.30;;;3.10;;
77430;SDS011;66498;48.564;19.272;2023-02-21T08:02:54;5.78;;;3.50;;
77430;SDS011;66498;48.564;19.272;2023-02-21T08:05:20;5.72;;;2.70;;
77430;SDS011;66498;48.564;19.272;2023-02-21T08:07:46;4.68;;;2.55;;
77430;SDS011;66498;48.564;19.272;2023-02-21T08:10:12;5.85;;;2.95;;
77430;SDS011;66498;48.564;19.272;2023-02-21T08:12:43;4.22;;;2.75;;
77430;SDS011;66498;48.564;19.272;2023-02-21T08:15:08;5.85;;;3.00;;
77430;SDS011;66498;48.564;19.272;2023-02-21T08:17:35;5.70;;;3.20;;
77430;SDS011;66498;48.564;19.272;2023-02-21T08:20:00;5.18;;;2.90;;
77430;SDS011;66498;48.564;19.272;2023-02-21T08:22:26;4.43;;;2.65;;
77430;SDS011;66498;48.564;19.272;2023-02-21T08:24:52;4.93;;;3.08;;
77430;SDS011;66498;48.564;19.272;2023-02-21T08:27:17;5.43;;;2.75;;
77430;SDS011;66498;48.564;19.272;2023-02-21T08:29:43;4.18;;;2.30;;
77430;SDS011;66498;48.564;19.272;2023-02-21T08:32:08;8.27;;;4.10;;
77430;SDS011;66498;48.564;19.272;2023-02-21T08:34:34;6.22;;;3.30;;
77430;SDS011;66498;48.564;19.272;2023-02-21T08:36:59;4.82;;;2.55;;
77430;SDS011;66498;48.564;19.272;2023-02-21T08:39:25;5.28;;;2.65;;
77430;SDS011;66498;48.564;19.272;2023-02-21T08:41:54;3.95;;;2.13;;
77430;SDS011;66498;48.564;19.272;2023-02-21T08:44:20;3.72;;;2.33;;
77430;SDS011;66498;48.564;19.272;2023-02-21T08:46:46;5.60;;;2.70;;
77430;SDS011;66498;48.564;19.272;2023-02-21T08:49:12;5.28;;;2.92;;
77430;SDS011;66498;48.564;19.272;2023-02-21T08:51:38;5.00;;;2.83;;
77430;SDS011;66498;48.564;19.272;2023-02-21T08:54:04;2.22;;;1.73;;
77430;SDS011;66498;48.564;19.272;2023-02-21T08:56:31;5.22;;;2.70;;
77430;SDS011;66498;48.564;19.272;2023-02-21T08:58:57;3.90;;;1.98;;
77430;SDS011;66498;48.564;19.272;2023-02-21T09:01:23;4.32;;;2.30;;
77430;SDS011;66498;48.564;19.272;2023-02-21T09:03:55;4.95;;;2.72;;
77430;SDS011;66498;48.564;19.272;2023-02-21T09:06:21;5.00;;;2.55;;
77430;SDS011;66498;48.564;19.272;2023-02-21T09:08:46;3.72;;;2.25;;
77430;SDS011;66498;48.564;19.272;2023-02-21T09:11:12;6.45;;;3.20;;
77430;SDS011;66498;48.564;19.272;2023-02-21T09:13:38;4.57;;;2.67;;
77430;SDS011;66498;48.564;19.272;2023-02-21T09:16:03;5.63;;;2.83;;
77430;SDS011;66498;48.564;19.272;2023-02-21T09:18:29;3.33;;;2.10;;
77430;SDS011;66498;48.564;19.272;2023-02-21T09:20:56;4.55;;;2.65;;
77430;SDS011;66498;48.564;19.272;2023-02-21T09:23:23;3.80;;;2.53;;
77430;SDS011;66498;48.564;19.272;2023-02-21T09:25:50;3.40;;;2.08;;
77430;SDS011;66498;48.564;19.272;2023-02-21T09:28:16;6.65;;;3.13;;
77430;SDS011;66498;48.564;19.272;2023-02-21T09:30:43;5.68;;;3.08;;
77430;SDS011;66498;48.564;19.272;2023-02-21T09:33:09;4.90;;;2.85;;
77430;SDS011;66498;48.564;19.272;2023-02-21T09:35:35;3.78;;;2.45;;
77430;SDS011;66498;48.564;19.272;2023-02-21T09:38:01;4.13;;;2.53;;
77430;SDS011;66498;48.564;19.272;2023-02-21T09:40:35;4.32;;;2.95;;
77430;SDS011;66498;48.564;19.272;2023-02-21T09:43:10;3.10;;;2.40;;
77430;SDS011;66498;48.564;19.272;2023-02-21T09:45:39;3.72;;;2.70;;
77430;SDS011;66498;48.564;19.272;2023-02-21T09:48:12;3.45;;;2.53;;
77430;SDS011;66498;48.564;19.272;2023-02-21T09:50:54;3.85;;;2.65;;
77430;SDS011;66498;48.564;19.272;2023-02-21T09:53:26;4.15;;;2.97;;
77430;SDS011;66498;48.564;19.272;2023-02-21T09:56:39;7.43;;;4.75;;
77430;SDS011;66498;48.564;19.272;2023-02-21T09:58:52;9.73;;;5.90;;
77430;SDS011;66498;48.564;19.272;2023-02-21T10:01:27;11.40;;;7.30;;
77430;SDS011;66498;48.564;19.272;2023-02-21T10:04:01;19.17;;;8.15;;
77430;SDS011;66498;48.564;19.272;2023-02-21T10:21:55;4.00;;;2.33;;
77430;SDS011;66498;48.564;19.272;2023-02-21T10:24:25;6.25;;;3.10;;
77430;SDS011;66498;48.564;19.272;2023-02-21T10:26:57;4.85;;;2.40;;
77430;SDS011;66498;48.564;19.272;2023-02-21T10:32:10;4.32;;;2.53;;
77430;SDS011;66498;48.564;19.272;2023-02-21T10:34:36;4.05;;;2.53;;
77430;SDS011;66498;48.564;19.272;2023-02-21T10:37:03;3.90;;;2.42;;
77430;SDS011;66498;48.564;19.272;2023-02-21T10:39:43;3.55;;;2.13;;
77430;SDS011;66498;48.564;19.272;2023-02-21T10:42:17;7.78;;;3.10;;
77430;SDS011;66498;48.564;19.272;2023-02-21T10:44:51;2.50;;;1.73;;
77430;SDS011;66498;48.564;19.272;2023-02-21T10:47:18;2.55;;;1.80;;
77430;SDS011;66498;48.564;19.272;2023-02-21T10:50:23;6.72;;;2.80;;
77430;SDS011;66498;48.564;19.272;2023-02-21T10:53:00;7.60;;;2.53;;
77430;SDS011;66498;48.564;19.272;2023-02-21T10:55:25;1.63;;;1.30;;
77430;SDS011;66498;48.564;19.272;2023-02-21T10:57:57;2.35;;;1.75;;
77430;SDS011;66498;48.564;19.272;2023-02-21T11:06:02;3.55;;;1.60;;
77430;SDS011;66498;48.564;19.272;2023-02-21T11:11:08;2.97;;;1.60;;
77430;SDS011;66498;48.564;19.272;2023-02-21T11:13:35;2.08;;;1.45;;
77430;SDS011;66498;48.564;19.272;2023-02-21T11:19:05;1.30;;;1.20;;
77430;SDS011;66498;48.564;19.272;2023-02-21T11:21:31;4.93;;;2.33;;
77430;SDS011;66498;48.564;19.272;2023-02-21T11:23:58;2.17;;;1.33;;
77430;SDS011;66498;48.564;19.272;2023-02-21T11:26:29;2.28;;;1.45;;
77430;SDS011;66498;48.564;19.272;2023-02-21T11:29:08;3.53;;;1.52;;
77430;SDS011;66498;48.564;19.272;2023-02-21T11:31:36;2.15;;;1.70;;
77430;SDS011;66498;48.564;19.272;2023-02-21T11:34:02;2.30;;;1.60;;
77430;SDS011;66498;48.564;19.272;2023-02-21T11:36:31;1.55;;;1.45;;
77430;SDS011;66498;48.564;19.272;2023-02-21T11:42:01;2.85;;;1.60;;
77430;SDS011;66498;48.564;19.272;2023-02-21T11:44:34;1.75;;;1.55;;
77430;SDS011;66498;48.564;19.272;2023-02-21T11:47:15;2.45;;;1.50;;
77430;SDS011;66498;48.564;19.272;2023-02-21T11:52:23;2.42;;;1.83;;
77430;SDS011;66498;48.564;19.272;2023-02-21T11:54:55;1.80;;;1.45;;
77430;SDS011;66498;48.564;19.272;2023-02-21T12:02:50;1.52;;;1.40;;
77430;SDS011;66498;48.564;19.272;2023-02-21T12:10:29;2.20;;;1.60;;
77430;SDS011;66498;48.564;19.272;2023-02-21T12:16:05;6.30;;;2.95;;
77430;SDS011;66498;48.564;19.272;2023-02-21T12:21:16;2.90;;;1.60;;
77430;SDS011;66498;48.564;19.272;2023-02-21T12:57:17;4.13;;;1.92;;
77430;SDS011;66498;48.564;19.272;2023-02-21T12:59:51;3.15;;;1.92;;
77430;SDS011;66498;48.564;19.272;2023-02-21T13:13:36;2.70;;;1.73;;
77430;SDS011;66498;48.564;19.272;2023-02-21T13:16:04;4.38;;;2.53;;
77430;SDS011;66498;48.564;19.272;2023-02-21T13:23:58;4.45;;;2.33;;
77430;SDS011;66498;48.564;19.272;2023-02-21T13:29:23;3.35;;;2.00;;
77430;SDS011;66498;48.564;19.272;2023-02-21T13:32:11;9.88;;;4.63;;
77430;SDS011;66498;48.564;19.272;2023-02-21T13:34:59;12.98;;;5.85;;
77430;SDS011;66498;48.564;19.272;2023-02-21T13:37:28;4.32;;;2.60;;
77430;SDS011;66498;48.564;19.272;2023-02-21T13:39:57;7.20;;;4.22;;
77430;SDS011;66498;48.564;19.272;2023-02-21T13:45:34;4.72;;;2.78;;
77430;SDS011;66498;48.564;19.272;2023-02-21T13:51:43;4.70;;;2.83;;
77430;SDS011;66498;48.564;19.272;2023-02-21T13:58:44;3.67;;;2.20;;
77430;SDS011;66498;48.564;19.272;2023-02-21T14:07:09;5.43;;;2.60;;
77430;SDS011;66498;48.564;19.272;2023-02-21T14:09:36;7.35;;;3.20;;
77430;SDS011;66498;48.564;19.272;2023-02-21T14:12:05;5.28;;;3.40;;
77430;SDS011;66498;48.564;19.272;2023-02-21T14:14:34;3.03;;;2.28;;
77430;SDS011;66498;48.564;19.272;2023-02-21T14:17:10;6.43;;;3.70;;
77430;SDS011;66498;48.564;19.272;2023-02-21T14:22:08;7.47;;;5.13;;
77430;SDS011;66498;48.564;19.272;2023-02-21T14:24:35;10.00;;;5.13;;
77430;SDS011;66498;48.564;19.272;2023-02-21T14:27:49;3.55;;;2.75;;
77430;SDS011;66498;48.564;19.272;2023-02-21T14:32:34;7.88;;;4.82;;
77430;SDS011;66498;48.564;19.272;2023-02-21T14:38:06;7.88;;;4.10;;
77430;SDS011;66498;48.564;19.272;2023-02-21T15:00:19;4.03;;;2.58;;
77430;SDS011;66498;48.564;19.272;2023-02-21T15:10:44;3.30;;;2.53;;
77430;SDS011;66498;48.564;19.272;2023-02-21T15:15:45;8.23;;;5.03;;
77430;SDS011;66498;48.564;19.272;2023-02-21T15:18:19;8.30;;;4.88;;
77430;SDS011;66498;48.564;19.272;2023-02-21T15:20:51;7.90;;;5.35;;
77430;SDS011;66498;48.564;19.272;2023-02-21T15:23:35;7.55;;;5.25;;
77430;SDS011;66498;48.564;19.272;2023-02-21T15:28:46;11.45;;;4.78;;
77430;SDS011;66498;48.564;19.272;2023-02-21T15:31:33;5.65;;;3.13;;
77430;SDS011;66498;48.564;19.272;2023-02-21T15:34:00;5.82;;;3.13;;
77430;SDS011;66498;48.564;19.272;2023-02-21T15:36:25;4.22;;;2.60;;
77430;SDS011;66498;48.564;19.272;2023-02-21T15:44:12;5.32;;;3.13;;
77430;SDS011;66498;48.564;19.272;2023-02-21T15:49:25;4.95;;;2.97;;
77430;SDS011;66498;48.564;19.272;2023-02-21T15:51:55;3.17;;;2.55;;
77430;SDS011;66498;48.564;19.272;2023-02-21T15:54:28;4.20;;;2.92;;
77430;SDS011;66498;48.564;19.272;2023-02-21T15:57:03;5.95;;;3.72;;
77430;SDS011;66498;48.564;19.272;2023-02-21T15:59:35;5.30;;;2.65;;
77430;SDS011;66498;48.564;19.272;2023-02-21T16:04:37;3.08;;;2.58;;
77430;SDS011;66498;48.564;19.272;2023-02-21T16:09:44;14.25;;;8.48;;
77430;SDS011;66498;48.564;19.272;2023-02-21T16:14:45;16.52;;;13.15;;
77430;SDS011;66498;48.564;19.272;2023-02-21T16:19:52;39.30;;;22.33;;
77430;SDS011;66498;48.564;19.272;2023-02-21T16:27:31;47.03;;;28.42;;
77430;SDS011;66498;48.564;19.272;2023-02-21T16:29:56;11.95;;;10.15;;
77430;SDS011;66498;48.564;19.272;2023-02-21T16:32:22;6.53;;;4.45;;
77430;SDS011;66498;48.564;19.272;2023-02-21T16:34:49;6.20;;;4.15;;
77430;SDS011;66498;48.564;19.272;2023-02-21T16:37:19;6.07;;;4.50;;
77430;SDS011;66498;48.564;19.272;2023-02-21T16:39:46;9.90;;;2.92;;
77430;SDS011;66498;48.564;19.272;2023-02-21T16:42:13;4.50;;;3.05;;
77430;SDS011;66498;48.564;19.272;2023-02-21T16:44:41;5.93;;;3.13;;
77430;SDS011;66498;48.564;19.272;2023-02-21T16:47:11;5.47;;;3.75;;
77430;SDS011;66498;48.564;19.272;2023-02-21T16:49:39;4.47;;;3.00;;
77430;SDS011;66498;48.564;19.272;2023-02-21T16:57:49;6.35;;;4.30;;
77430;SDS011;66498;48.564;19.272;2023-02-21T17:00:20;5.93;;;3.80;;
77430;SDS011;66498;48.564;19.272;2023-02-21T17:02:49;7.43;;;5.28;;
77430;SDS011;66498;48.564;19.272;2023-02-21T17:05:16;4.20;;;3.45;;
77430;SDS011;66498;48.564;19.272;2023-02-21T17:07:42;5.47;;;4.00;;
77430;SDS011;66498;48.564;19.272;2023-02-21T17:10:09;5.78;;;3.70;;
77430;SDS011;66498;48.564;19.272;2023-02-21T17:12:35;7.78;;;5.20;;
77430;SDS011;66498;48.564;19.272;2023-02-21T17:15:01;6.50;;;4.70;;
77430;SDS011;66498;48.564;19.272;2023-02-21T17:17:29;7.00;;;3.97;;
77430;SDS011;66498;48.564;19.272;2023-02-21T17:19:57;6.40;;;4.72;;
77430;SDS011;66498;48.564;19.272;2023-02-21T17:22:23;6.25;;;4.45;;
77430;SDS011;66498;48.564;19.272;2023-02-21T17:24:48;15.05;;;10.23;;
77430;SDS011;66498;48.564;19.272;2023-02-21T17:27:14;10.50;;;7.45;;
77430;SDS011;66498;48.564;19.272;2023-02-21T17:29:39;7.50;;;4.82;;
77430;SDS011;66498;48.564;19.272;2023-02-21T17:32:05;6.45;;;4.63;;
77430;SDS011;66498;48.564;19.272;2023-02-21T17:34:34;10.73;;;6.30;;
77430;SDS011;66498;48.564;19.272;2023-02-21T17:37:01;6.15;;;4.70;;
77430;SDS011;66498;48.564;19.272;2023-02-21T17:39:27;7.50;;;5.57;;
77430;SDS011;66498;48.564;19.272;2023-02-21T17:41:53;6.65;;;4.57;;
77430;SDS011;66498;48.564;19.272;2023-02-21T17:44:19;8.95;;;6.00;;
77430;SDS011;66498;48.564;19.272;2023-02-21T17:46:47;8.15;;;5.15;;
77430;SDS011;66498;48.564;19.272;2023-02-21T17:49:19;9.18;;;6.47;;
77430;SDS011;66498;48.564;19.272;2023-02-21T17:51:46;8.38;;;5.20;;
77430;SDS011;66498;48.564;19.272;2023-02-21T17:54:13;8.00;;;5.53;;
77430;SDS011;66498;48.564;19.272;2023-02-21T17:56:40;13.02;;;7.38;;
77430;SDS011;66498;48.564;19.272;2023-02-21T17:59:05;13.40;;;7.78;;
77430;SDS011;66498;48.564;19.272;2023-02-21T18:01:31;10.10;;;5.65;;
77430;SDS011;66498;48.564;19.272;2023-02-21T18:03:56;9.45;;;6.35;;
77430;SDS011;66498;48.564;19.272;2023-02-21T18:06:25;7.90;;;5.75;;
77430;SDS011;66498;48.564;19.272;2023-02-21T18:08:52;8.18;;;6.30;;
77430;SDS011;66498;48.564;19.272;2023-02-21T18:11:19;6.00;;;4.78;;
77430;SDS011;66498;48.564;19.272;2023-02-21T18:13:45;7.60;;;5.40;;
77430;SDS011;66498;48.564;19.272;2023-02-21T18:16:11;8.48;;;6.22;;
77430;SDS011;66498;48.564;19.272;2023-02-21T18:18:37;8.63;;;6.60;;
77430;SDS011;66498;48.564;19.272;2023-02-21T18:21:03;7.28;;;5.57;;
77430;SDS011;66498;48.564;19.272;2023-02-21T18:23:29;7.55;;;6.40;;
77430;SDS011;66498;48.564;19.272;2023-02-21T18:25:55;9.55;;;6.45;;
77430;SDS011;66498;48.564;19.272;2023-02-21T18:28:21;7.95;;;6.00;;
77430;SDS011;66498;48.564;19.272;2023-02-21T18:30:47;9.07;;;6.70;;
77430;SDS011;66498;48.564;19.272;2023-02-21T18:33:15;9.07;;;7.22;;
77430;SDS011;66498;48.564;19.272;2023-02-21T18:35:42;9.30;;;6.88;;
77430;SDS011;66498;48.564;19.272;2023-02-21T18:38:07;9.43;;;7.80;;
77430;SDS011;66498;48.564;19.272;2023-02-21T18:40:33;14.93;;;10.40;;
77430;SDS011;66498;48.564;19.272;2023-02-21T18:42:59;14.10;;;9.93;;
77430;SDS011;66498;48.564;19.272;2023-02-21T18:45:26;13.90;;;10.23;;
77430;SDS011;66498;48.564;19.272;2023-02-21T18:47:51;12.75;;;8.93;;